Time;durP1;ratioP1;P1;durP2;ratioP2;P2;SDS_P1;SDS_P2;PMS_P1;PMS_P2;Temp;Humidity;BMP_temperature;BMP_pressure;BME280_temperature;BME280_humidity;BME280_pressure;Samples;Min_cycle;Max_cycle;Signal;HPM_P1;HPM_P2
2022/07/29 00:02:06;;;;;;;8.65;5.68;;;21.90;99.90;;;;;;6987311;28;20439;-79
2022/07/29 00:05:29;;;;;;;8.60;5.13;;;21.90;99.90;;;;;;6989873;28;20444;-79
2022/07/29 00:08:51;;;;;;;7.13;5.20;;;21.80;99.90;;;;;;6990751;28;20497;-77
2022/07/29 00:12:15;;;;;;;6.00;4.90;;;21.80;99.90;;;;;;6987176;28;20496;-76
2022/07/29 00:15:37;;;;;;;8.13;5.40;;;21.80;99.90;;;;;;6983347;28;20493;-80
2022/07/29 00:18:59;;;;;;;7.03;5.00;;;21.80;99.90;;;;;;6989918;28;20560;-80
2022/07/29 00:22:22;;;;;;;6.43;4.50;;;21.90;99.90;;;;;;6980387;28;20531;-80
2022/07/29 00:25:44;;;;;;;6.30;4.75;;;21.90;99.90;;;;;;6982764;28;20504;-79
2022/07/29 00:29:07;;;;;;;7.65;5.60;;;21.90;99.90;;;;;;6982307;28;20501;-79
2022/07/29 00:32:29;;;;;;;9.45;6.50;;;22.00;99.90;;;;;;6994824;28;20799;-80
2022/07/29 00:35:51;;;;;;;7.38;5.53;;;22.00;99.90;;;;;;7002004;28;20427;-79
2022/07/29 00:39:13;;;;;;;8.52;5.78;;;21.90;99.90;;;;;;7000225;28;20428;-79
2022/07/29 00:42:43;;;;;;;8.05;6.00;;;21.90;99.90;;;;;;6996653;28;20913;-79
2022/07/29 00:46:07;;;;;;;7.63;6.10;;;21.70;99.90;;;;;;6988529;28;20432;-80
2022/07/29 00:49:29;;;;;;;8.35;5.80;;;21.60;99.90;;;;;;6988378;28;20441;-79
2022/07/29 00:52:52;;;;;;;7.03;4.90;;;21.50;99.90;;;;;;6987884;28;20443;-79
2022/07/29 00:56:15;;;;;;;7.47;5.10;;;21.50;99.90;;;;;;6982759;28;20470;-80
2022/07/29 00:59:37;;;;;;;6.60;4.75;;;21.50;99.90;;;;;;6986291;28;20429;-77
2022/07/29 01:03:00;;;;;;;7.55;5.15;;;21.60;99.90;;;;;;6986211;28;20438;-79
2022/07/29 01:06:23;;;;;;;6.57;4.28;;;21.50;99.90;;;;;;6986652;28;20437;-79
2022/07/29 01:09:47;;;;;;;6.53;3.80;;;21.50;99.90;;;;;;6987517;28;20435;-79
2022/07/29 01:13:10;;;;;;;4.78;3.60;;;21.50;99.90;;;;;;6987161;28;20438;-80
2022/07/29 01:16:38;;;;;;;5.95;3.80;;;21.60;99.90;;;;;;6991781;28;20433;-79
2022/07/29 01:20:10;;;;;;;5.68;4.88;;;21.60;99.90;;;;;;6983163;28;20913;-78
2022/07/29 01:24:13;;;;;;;4.72;3.40;;;21.40;99.90;;;;;;6992901;28;20437;-80
2022/07/29 01:27:53;;;;;;;5.03;3.55;;;21.30;99.90;;;;;;6980567;28;20943;-79
2022/07/29 01:31:20;;;;;;;4.82;3.53;;;21.40;99.90;;;;;;6986973;28;20493;-80
2022/07/29 01:34:48;;;;;;;5.90;3.42;;;21.40;99.90;;;;;;6984729;28;20935;-80
2022/07/29 01:38:15;;;;;;;5.38;3.30;;;21.40;99.90;;;;;;6986943;28;20436;-79
2022/07/29 01:41:50;;;;;;;5.75;3.08;;;21.40;99.90;;;;;;6980880;28;20427;-78
2022/07/29 01:45:19;;;;;;;5.25;3.20;;;21.50;99.90;;;;;;6986551;28;20443;-80
2022/07/29 01:48:47;;;;;;;5.13;3.35;;;21.30;99.90;;;;;;6981844;28;20431;-77
2022/07/29 01:52:15;;;;;;;5.57;3.27;;;21.30;99.90;;;;;;6991215;28;20443;-78
2022/07/29 01:55:42;;;;;;;5.00;3.30;;;21.40;99.90;;;;;;6981568;28;20909;-78
2022/07/29 01:59:08;;;;;;;5.78;3.80;;;21.40;99.90;;;;;;6992687;28;20431;-78
2022/07/29 02:02:33;;;;;;;5.13;3.70;;;21.40;99.90;;;;;;6990086;28;20433;-76
2022/07/29 02:05:58;;;;;;;4.82;3.60;;;21.20;99.90;;;;;;6989408;28;20470;-78
2022/07/29 02:09:22;;;;;;;4.72;2.92;;;21.10;99.90;;;;;;6985920;28;20438;-81
2022/07/29 02:12:46;;;;;;;5.00;3.20;;;21.10;99.90;;;;;;6993535;28;20435;-80
2022/07/29 02:16:10;;;;;;;5.13;3.10;;;21.20;99.90;;;;;;6991666;28;20434;-79
2022/07/29 02:19:34;;;;;;;5.28;3.20;;;21.30;99.90;;;;;;6993057;28;20437;-81
2022/07/29 02:23:00;;;;;;;5.68;3.20;;;21.30;99.90;;;;;;6986109;28;20446;-79
2022/07/29 02:26:25;;;;;;;5.50;3.33;;;21.30;99.90;;;;;;6985607;28;20445;-79
2022/07/29 02:29:48;;;;;;;5.30;3.28;;;21.30;99.90;;;;;;6987072;28;20454;-79
2022/07/29 02:33:14;;;;;;;5.10;3.42;;;21.30;99.90;;;;;;6990878;28;20439;-77
2022/07/29 02:36:36;;;;;;;6.57;3.70;;;21.30;99.90;;;;;;6978574;28;20948;-79
2022/07/29 02:40:01;;;;;;;5.75;3.70;;;21.20;99.90;;;;;;6993001;28;20432;-79
2022/07/29 02:43:25;;;;;;;6.10;3.90;;;21.20;99.90;;;;;;6991101;28;20436;-78
2022/07/29 02:46:52;;;;;;;6.43;3.90;;;21.10;99.90;;;;;;6989858;28;20435;-78
2022/07/29 02:50:20;;;;;;;7.03;4.10;;;21.10;99.90;;;;;;6989362;28;20431;-77
2022/07/29 02:53:45;;;;;;;6.47;4.75;;;21.10;99.90;;;;;;6992637;28;20431;-79
2022/07/29 02:57:18;;;;;;;7.97;4.28;;;21.00;99.90;;;;;;6990486;28;20432;-79
2022/07/29 03:00:42;;;;;;;6.20;4.30;;;21.10;99.90;;;;;;6980063;28;20872;-79
2022/07/29 03:04:06;;;;;;;5.45;4.10;;;21.10;99.90;;;;;;6986522;28;20827;-77
2022/07/29 03:07:28;;;;;;;5.30;4.10;;;21.10;99.90;;;;;;6988873;28;20482;-81
2022/07/29 03:10:52;;;;;;;7.00;3.90;;;21.10;99.90;;;;;;6991256;28;20438;-79
2022/07/29 03:14:18;;;;;;;5.40;3.90;;;21.20;99.90;;;;;;6983009;28;20433;-80
2022/07/29 03:17:41;;;;;;;6.95;4.10;;;21.20;99.90;;;;;;6991385;28;20461;-78
2022/07/29 03:21:04;;;;;;;7.95;4.18;;;21.20;99.90;;;;;;6991023;28;20423;-77
2022/07/29 03:24:29;;;;;;;6.65;3.90;;;21.10;99.90;;;;;;6990667;28;20445;-78
2022/07/29 03:27:51;;;;;;;6.70;4.47;;;21.00;99.90;;;;;;6991045;28;20427;-78
2022/07/29 03:31:15;;;;;;;5.07;3.70;;;20.80;99.90;;;;;;6978120;28;20441;-79
2022/07/29 03:34:38;;;;;;;8.90;4.32;;;20.60;99.90;;;;;;6990814;28;20428;-77
2022/07/29 03:38:00;;;;;;;5.95;4.22;;;20.60;99.90;;;;;;6984520;28;20917;-77
2022/07/29 03:41:24;;;;;;;6.90;5.35;;;20.40;99.90;;;;;;6989686;28;20454;-77
2022/07/29 03:44:49;;;;;;;7.38;4.32;;;20.10;99.90;;;;;;6989311;28;20431;-78
2022/07/29 03:48:17;;;;;;;6.60;4.63;;;20.10;99.90;;;;;;6987335;28;20432;-78
2022/07/29 03:51:39;;;;;;;7.25;4.60;;;20.30;99.90;;;;;;6984368;28;20440;-77
2022/07/29 03:55:02;;;;;;;6.40;4.32;;;20.40;99.90;;;;;;7000265;28;20423;-76
2022/07/29 03:58:27;;;;;;;8.97;4.70;;;20.40;99.90;;;;;;6998269;28;20439;-76
2022/07/29 04:01:51;;;;;;;7.00;4.65;;;20.50;99.90;;;;;;6975242;28;20431;-77
2022/07/29 04:05:15;;;;;;;6.63;4.60;;;20.50;99.90;;;;;;6985438;28;20433;-78
2022/07/29 04:08:38;;;;;;;8.32;4.40;;;20.40;99.90;;;;;;6977878;28;20429;-78
2022/07/29 04:12:00;;;;;;;6.23;5.10;;;20.40;99.90;;;;;;6980579;28;20969;-78
2022/07/29 04:15:22;;;;;;;6.28;4.60;;;20.40;99.90;;;;;;6996602;28;20427;-78
2022/07/29 04:18:44;;;;;;;7.03;4.67;;;20.40;99.90;;;;;;6998715;28;20427;-78
2022/07/29 04:22:07;;;;;;;7.00;4.53;;;20.50;99.90;;;;;;6996799;28;20424;-79
2022/07/29 04:25:29;;;;;;;6.25;4.60;;;20.60;99.90;;;;;;6996086;28;20423;-78
2022/07/29 04:28:51;;;;;;;7.45;4.95;;;20.60;99.90;;;;;;6992920;28;20448;-79
2022/07/29 04:32:13;;;;;;;6.35;4.88;;;20.60;99.90;;;;;;6969200;28;20480;-79
2022/07/29 04:35:37;;;;;;;7.00;4.25;;;20.60;99.90;;;;;;6968493;28;20424;-79
2022/07/29 04:39:00;;;;;;;7.25;4.20;;;20.70;99.90;;;;;;6968701;28;20929;-78
2022/07/29 04:42:23;;;;;;;7.63;4.57;;;20.80;99.90;;;;;;6968479;28;20507;-77
2022/07/29 04:45:45;;;;;;;11.23;4.90;;;20.80;99.90;;;;;;6987634;28;20427;-75
2022/07/29 04:49:07;;;;;;;7.57;4.60;;;20.70;99.90;;;;;;6996012;28;20447;-76
2022/07/29 04:52:29;;;;;;;8.63;4.70;;;20.70;99.90;;;;;;6995906;28;20839;-75
2022/07/29 04:55:53;;;;;;;7.15;4.90;;;20.80;99.90;;;;;;6970757;28;20448;-77
2022/07/29 04:59:15;;;;;;;7.45;4.60;;;20.70;99.90;;;;;;6968252;28;20429;-78
2022/07/29 05:02:37;;;;;;;8.00;4.78;;;20.80;99.90;;;;;;6975001;28;20433;-78
2022/07/29 05:05:59;;;;;;;6.45;5.00;;;20.90;99.90;;;;;;6968769;28;20434;-76
2022/07/29 05:09:21;;;;;;;7.88;4.85;;;20.90;99.90;;;;;;6968353;28;20830;-78
2022/07/29 05:12:44;;;;;;;8.73;4.87;;;20.90;99.90;;;;;;6967727;28;20437;-78
2022/07/29 05:16:06;;;;;;;7.45;4.80;;;21.00;99.90;;;;;;6990396;28;20427;-77
2022/07/29 05:19:28;;;;;;;8.02;4.93;;;21.00;99.90;;;;;;6995393;28;20427;-77
2022/07/29 05:22:50;;;;;;;8.05;4.78;;;21.00;99.90;;;;;;6999855;28;20438;-76
2022/07/29 05:26:13;;;;;;;6.40;5.20;;;21.10;99.90;;;;;;7000911;28;20431;-79
2022/07/29 05:29:36;;;;;;;7.97;5.10;;;21.10;99.90;;;;;;7015762;28;20427;-78
2022/07/29 05:32:58;;;;;;;7.72;4.82;;;21.10;99.90;;;;;;7000674;28;20488;-78
2022/07/29 05:36:20;;;;;;;6.78;4.90;;;21.10;99.90;;;;;;7000862;28;20771;-77
2022/07/29 05:39:42;;;;;;;7.03;4.25;;;21.10;99.90;;;;;;6998952;28;20424;-77
2022/07/29 05:43:04;;;;;;;12.10;4.87;;;21.20;99.90;;;;;;7000398;28;20445;-78
2022/07/29 05:46:28;;;;;;;7.50;4.65;;;21.30;99.90;;;;;;6990141;28;20452;-78
2022/07/29 05:49:50;;;;;;;5.85;4.43;;;21.20;99.90;;;;;;6972935;28;20440;-78
2022/07/29 05:53:12;;;;;;;6.60;4.85;;;21.30;99.90;;;;;;6972823;28;20440;-78
2022/07/29 05:56:36;;;;;;;6.13;4.68;;;21.30;99.90;;;;;;6972839;28;20424;-79
2022/07/29 05:59:59;;;;;;;5.93;4.73;;;21.30;99.90;;;;;;6975964;28;20445;-78
2022/07/29 06:03:22;;;;;;;7.50;5.10;;;21.10;99.90;;;;;;6999495;28;20538;-79
2022/07/29 06:06:44;;;;;;;6.70;4.88;;;20.90;99.90;;;;;;6972768;28;20429;-81
2022/07/29 06:10:07;;;;;;;5.90;4.40;;;20.90;99.90;;;;;;6998827;28;20516;-77
2022/07/29 06:13:29;;;;;;;5.80;4.40;;;21.10;99.90;;;;;;7000036;28;20439;-79
2022/07/29 06:16:52;;;;;;;6.75;4.88;;;21.20;99.90;;;;;;6978826;28;20437;-80
2022/07/29 06:20:16;;;;;;;8.95;5.00;;;20.90;99.90;;;;;;6972425;28;20778;-78
2022/07/29 06:23:38;;;;;;;7.70;4.57;;;20.60;99.90;;;;;;6976555;28;20471;-78
2022/07/29 06:27:00;;;;;;;6.23;4.60;;;20.70;99.90;;;;;;6973731;28;20934;-79
2022/07/29 06:30:22;;;;;;;5.78;4.53;;;21.00;99.90;;;;;;6973193;28;20425;-77
2022/07/29 06:33:44;;;;;;;5.78;4.53;;;21.20;99.90;;;;;;6987807;28;20464;-79
2022/07/29 06:37:10;;;;;;;6.90;4.60;;;21.30;99.90;;;;;;6999700;28;20413;-79
2022/07/29 06:44:11;;;;;;;7.77;4.93;;;21.30;99.90;;;;;;6988979;28;20466;-77
2022/07/29 06:47:34;;;;;;;7.60;4.88;;;21.40;99.90;;;;;;7002219;28;20437;-77
2022/07/29 06:50:57;;;;;;;9.80;5.82;;;21.50;99.90;;;;;;7003244;28;20429;-80
2022/07/29 06:54:21;;;;;;;7.88;5.82;;;21.70;99.90;;;;;;6992173;28;20437;-80
2022/07/29 06:57:43;;;;;;;7.75;5.28;;;21.80;99.90;;;;;;6982480;28;20421;-79
2022/07/29 07:01:07;;;;;;;6.22;4.72;;;21.70;99.90;;;;;;6976998;28;20432;-78
2022/07/29 07:04:29;;;;;;;7.63;5.00;;;21.60;99.90;;;;;;6973741;28;20521;-79
2022/07/29 07:07:51;;;;;;;7.00;4.80;;;21.80;99.90;;;;;;6972149;28;20425;-78
2022/07/29 07:11:14;;;;;;;7.00;4.95;;;21.70;99.90;;;;;;6971528;28;20491;-78
2022/07/29 07:14:36;;;;;;;6.15;4.78;;;21.70;99.90;;;;;;6975533;28;20799;-79
2022/07/29 07:17:58;;;;;;;7.20;4.73;;;21.70;99.90;;;;;;6970567;28;20431;-80
2022/07/29 07:21:21;;;;;;;8.82;5.28;;;21.90;99.90;;;;;;6971639;28;20437;-80
2022/07/29 07:24:43;;;;;;;7.90;5.40;;;22.10;99.90;;;;;;6970821;28;20445;-80
2022/07/29 07:28:06;;;;;;;8.30;5.30;;;22.50;99.90;;;;;;6969932;28;20429;-77
2022/07/29 07:31:28;;;;;;;8.05;5.60;;;22.20;99.90;;;;;;6969775;28;20432;-78
2022/07/29 07:34:50;;;;;;;7.13;5.10;;;22.10;99.90;;;;;;6970021;28;20463;-78
2022/07/29 07:38:12;;;;;;;7.15;4.80;;;22.10;99.90;;;;;;6969491;28;20437;-79
2022/07/29 07:41:34;;;;;;;8.07;4.60;;;22.20;99.90;;;;;;6971676;28;20916;-80
2022/07/29 07:44:58;;;;;;;7.73;4.40;;;22.40;99.90;;;;;;6997082;28;20428;-78
2022/07/29 07:48:20;;;;;;;5.68;3.67;;;22.50;99.90;;;;;;6980631;28;20429;-76
2022/07/29 07:51:42;;;;;;;6.10;4.20;;;22.60;99.90;;;;;;6969365;28;20429;-75
2022/07/29 07:55:05;;;;;;;6.80;4.50;;;22.70;99.90;;;;;;6969549;28;20472;-77
2022/07/29 07:58:27;;;;;;;6.68;4.22;;;22.50;99.90;;;;;;6970916;28;20464;-78
2022/07/29 08:01:50;;;;;;;6.20;4.63;;;22.80;99.90;;;;;;6969728;28;20570;-78
2022/07/29 08:05:16;;;;;;;7.13;4.70;;;22.90;99.90;;;;;;6969595;28;20425;-77
2022/07/29 08:08:38;;;;;;;7.47;4.57;;;23.00;99.90;;;;;;6969409;28;20929;-77
2022/07/29 08:12:03;;;;;;;7.00;4.60;;;23.10;99.90;;;;;;6969867;28;20459;-79
2022/07/29 08:15:25;;;;;;;6.32;4.20;;;23.10;99.90;;;;;;6968751;28;20437;-77
2022/07/29 08:18:49;;;;;;;6.70;4.10;;;23.10;99.90;;;;;;6968751;28;20425;-78
2022/07/29 08:22:11;;;;;;;6.63;3.92;;;23.10;99.90;;;;;;6987255;28;20458;-77
2022/07/29 08:25:33;;;;;;;6.90;3.85;;;23.20;99.90;;;;;;6996445;28;20452;-81
2022/07/29 08:28:55;;;;;;;6.10;3.90;;;23.20;99.90;;;;;;6974286;28;20426;-78
2022/07/29 08:32:17;;;;;;;7.35;3.65;;;23.20;99.30;;;;;;6970089;28;20510;-78
2022/07/29 08:35:41;;;;;;;6.78;4.07;;;23.30;99.40;;;;;;6968554;28;20445;-76
2022/07/29 08:39:03;;;;;;;6.60;4.05;;;23.30;98.80;;;;;;6969047;28;20457;-79
2022/07/29 08:42:25;;;;;;;6.43;3.88;;;23.40;98.80;;;;;;6979190;28;20439;-77
2022/07/29 08:45:50;;;;;;;7.35;3.88;;;23.30;98.60;;;;;;6995959;28;20450;-79
2022/07/29 08:49:13;;;;;;;5.97;4.18;;;23.30;97.90;;;;;;6996146;28;20431;-79
2022/07/29 08:52:39;;;;;;;8.35;4.00;;;23.40;98.00;;;;;;6995707;28;20428;-78
2022/07/29 08:56:02;;;;;;;6.65;4.13;;;23.40;98.00;;;;;;6994054;28;20427;-78
2022/07/29 08:59:28;;;;;;;8.10;4.20;;;23.60;97.90;;;;;;6968209;28;21246;-79
2022/07/29 09:02:59;;;;;;;6.90;4.20;;;23.70;98.40;;;;;;6972444;28;20423;-76
2022/07/29 09:06:26;;;;;;;7.40;4.00;;;23.70;97.80;;;;;;6975124;28;20429;-78
2022/07/29 09:09:49;;;;;;;8.07;4.10;;;23.80;97.00;;;;;;6968283;28;20540;-77
2022/07/29 09:13:12;;;;;;;7.47;4.10;;;23.90;97.60;;;;;;6968394;28;20437;-77
2022/07/29 09:16:53;;;;;;;7.57;4.07;;;23.90;96.20;;;;;;6968987;28;20436;-78
2022/07/29 09:20:18;;;;;;;6.40;3.90;;;24.00;96.50;;;;;;6967905;28;20468;-80
2022/07/29 09:23:41;;;;;;;7.13;3.90;;;24.10;95.70;;;;;;6968995;28;20538;-82
2022/07/29 09:27:11;;;;;;;6.43;3.95;;;24.20;94.70;;;;;;6979942;28;20431;-81
2022/07/29 09:30:33;;;;;;;6.47;4.10;;;24.40;95.20;;;;;;6968535;28;20437;-80
2022/07/29 09:33:58;;;;;;;6.22;3.70;;;24.40;93.70;;;;;;6975704;28;20435;-78
2022/07/29 09:37:30;;;;;;;8.13;3.97;;;24.40;95.00;;;;;;6977152;28;20433;-79
2022/07/29 09:40:58;;;;;;;5.82;3.90;;;24.60;94.70;;;;;;6968578;28;20430;-80
2022/07/29 09:44:23;;;;;;;7.75;4.00;;;24.60;93.40;;;;;;6988780;28;20443;-79
2022/07/29 09:47:48;;;;;;;7.00;3.85;;;24.80;94.00;;;;;;6973879;28;20440;-79
2022/07/29 09:51:19;;;;;;;6.22;3.78;;;24.90;93.50;;;;;;6972660;28;20512;-79
2022/07/29 09:54:41;;;;;;;7.50;4.00;;;25.00;92.90;;;;;;6970054;28;20529;-78
2022/07/29 09:58:24;;;;;;;6.90;3.85;;;25.00;92.40;;;;;;6967492;28;20451;-79
2022/07/29 10:01:47;;;;;;;5.95;4.00;;;25.10;92.70;;;;;;6967366;28;20560;-78
2022/07/29 10:05:21;;;;;;;6.90;4.00;;;25.10;91.70;;;;;;6968701;28;20432;-78
2022/07/29 10:08:43;;;;;;;6.95;3.97;;;25.20;90.90;;;;;;6968876;28;20799;-79
2022/07/29 10:12:08;;;;;;;6.40;3.92;;;25.20;91.80;;;;;;6972353;28;20451;-77
2022/07/29 10:15:33;;;;;;;7.53;4.13;;;25.30;91.60;;;;;;6972863;28;20578;-77
2022/07/29 10:18:56;;;;;;;6.95;4.32;;;25.30;91.70;;;;;;6972323;28;20425;-78
2022/07/29 10:22:18;;;;;;;6.67;4.30;;;25.30;91.00;;;;;;6972193;28;20745;-78
2022/07/29 10:25:40;;;;;;;6.97;4.10;;;25.40;91.20;;;;;;6971827;28;20551;-78
2022/07/29 10:29:03;;;;;;;6.07;4.03;;;25.40;91.40;;;;;;6971459;28;20436;-77
2022/07/29 10:32:52;;;;;;;7.00;3.95;;;25.50;90.80;;;;;;6971606;28;20779;-79
2022/07/29 10:36:33;;;;;;;7.80;4.00;;;25.60;90.40;;;;;;6974159;28;20458;-78
2022/07/29 10:43:47;;;;;;;6.82;3.80;;;25.80;89.50;;;;;;6967232;28;20434;-78
2022/07/29 10:47:20;;;;;;;6.30;3.65;;;25.90;88.50;;;;;;6980001;28;20469;-77
2022/07/29 10:50:58;;;;;;;8.68;3.90;;;26.00;88.80;;;;;;6966905;28;20469;-78
2022/07/29 10:54:50;;;;;;;7.03;3.95;;;26.10;88.20;;;;;;6986574;28;20443;-79
2022/07/29 10:58:15;;;;;;;5.63;3.80;;;26.20;88.40;;;;;;6965888;28;20946;-76
2022/07/29 11:01:37;;;;;;;7.60;3.78;;;26.30;87.70;;;;;;6968485;28;20819;-77
2022/07/29 11:05:04;;;;;;;6.73;3.70;;;26.30;87.70;;;;;;6966948;28;20431;-79
2022/07/29 11:08:26;;;;;;;6.88;3.78;;;26.40;86.10;;;;;;6979462;28;20429;-78
2022/07/29 11:11:50;;;;;;;6.18;3.70;;;26.30;85.80;;;;;;6969634;28;21002;-79
2022/07/29 11:15:17;;;;;;;5.53;3.58;;;26.40;84.80;;;;;;6959908;28;20472;-79
2022/07/29 11:19:22;;;;;;;6.18;3.80;;;26.30;85.00;;;;;;6970334;28;20433;-78
2022/07/29 11:22:45;;;;;;;6.20;3.92;;;26.30;83.70;;;;;;6967513;28;20433;-79
2022/07/29 11:26:21;;;;;;;8.07;3.70;;;26.40;83.90;;;;;;6966111;28;20457;-80
2022/07/29 11:29:53;;;;;;;6.30;3.40;;;26.50;82.40;;;;;;6968238;28;20543;-78
2022/07/29 11:33:29;;;;;;;7.03;3.63;;;26.50;82.40;;;;;;6966727;28;20978;-78
2022/07/29 11:37:25;;;;;;;6.78;3.70;;;26.70;83.20;;;;;;6966589;28;20482;-79
2022/07/29 11:41:23;;;;;;;5.88;3.20;;;26.70;82.00;;;;;;6881310;28;20521;-78
2022/07/29 11:44:57;;;;;;;6.60;3.33;;;26.50;82.50;;;;;;6932526;28;20484;-79
2022/07/29 11:48:20;;;;;;;4.07;2.43;;;26.30;83.40;;;;;;6989530;28;20939;-81
2022/07/29 11:51:42;;;;;;;6.07;2.20;;;25.90;80.90;;;;;;6994592;28;20459;-78
2022/07/29 11:55:07;;;;;;;3.80;2.13;;;25.70;78.70;;;;;;6992986;28;20443;-80
2022/07/29 11:58:30;;;;;;;5.40;2.70;;;25.50;78.40;;;;;;6969895;28;20425;-78
2022/07/29 12:01:57;;;;;;;4.57;2.67;;;25.30;78.70;;;;;;6966269;28;20426;-79
2022/07/29 12:05:20;;;;;;;7.05;3.03;;;25.10;79.80;;;;;;6964357;28;20524;-81
2022/07/29 12:08:43;;;;;;;5.00;2.20;;;24.80;84.80;;;;;;6966015;28;20444;-80
2022/07/29 12:12:06;;;;;;;6.50;2.70;;;24.50;86.70;;;;;;6959105;28;20949;-78
2022/07/29 12:15:28;;;;;;;5.10;2.38;;;24.60;90.30;;;;;;6981527;28;20472;-79
2022/07/29 12:19:05;;;;;;;4.35;1.98;;;24.70;90.10;;;;;;6976992;28;20463;-78
2022/07/29 12:22:28;;;;;;;4.20;2.00;;;24.70;90.10;;;;;;6980554;28;21320;-78
2022/07/29 12:25:50;;;;;;;4.50;1.95;;;24.70;89.20;;;;;;6986145;28;20436;-78
2022/07/29 12:29:17;;;;;;;5.45;2.50;;;24.80;86.30;;;;;;6975149;28;20429;-78
2022/07/29 12:32:42;;;;;;;4.13;2.17;;;24.60;90.60;;;;;;6980383;28;20515;-78
2022/07/29 12:36:07;;;;;;;5.32;2.20;;;24.80;90.40;;;;;;6965130;28;20457;-79
2022/07/29 12:39:30;;;;;;;5.15;2.40;;;24.60;90.80;;;;;;6987602;28;20561;-81
2022/07/29 12:43:09;;;;;;;4.50;2.17;;;24.50;90.70;;;;;;6995558;28;20435;-80
2022/07/29 12:46:31;;;;;;;4.97;2.13;;;24.50;91.10;;;;;;6943874;28;20429;-78
2022/07/29 12:50:10;;;;;;;4.38;2.28;;;24.60;90.60;;;;;;6972376;28;20424;-77
2022/07/29 12:53:34;;;;;;;4.28;2.20;;;24.60;91.00;;;;;;6969948;28;20433;-77
2022/07/29 12:57:00;;;;;;;5.72;2.40;;;24.60;91.30;;;;;;6982130;28;20435;-76
2022/07/29 13:00:24;;;;;;;5.72;2.60;;;24.70;92.10;;;;;;6969795;28;20437;-77
2022/07/29 13:03:52;;;;;;;4.40;2.22;;;24.70;91.60;;;;;;6978114;28;20435;-80
2022/07/29 13:07:14;;;;;;;4.77;2.53;;;24.80;92.40;;;;;;6972482;28;20508;-76
2022/07/29 13:10:38;;;;;;;4.57;2.35;;;24.80;92.30;;;;;;6969211;28;20429;-76
2022/07/29 13:14:00;;;;;;;4.00;2.37;;;24.80;91.90;;;;;;6966118;28;20437;-78
2022/07/29 13:17:23;;;;;;;7.03;3.60;;;25.00;91.20;;;;;;6972562;28;20932;-79
2022/07/29 13:20:46;;;;;;;5.47;2.50;;;25.20;91.20;;;;;;6992652;28;20428;-78
2022/07/29 13:24:09;;;;;;;4.50;2.50;;;25.10;90.80;;;;;;6992087;28;20434;-77
2022/07/29 13:27:36;;;;;;;4.93;2.50;;;25.10;90.30;;;;;;6993113;28;20423;-75
2022/07/29 13:30:58;;;;;;;4.17;2.70;;;25.30;90.00;;;;;;6966321;28;20467;-75
2022/07/29 13:34:22;;;;;;;3.90;2.40;;;25.20;89.00;;;;;;6963178;28;20449;-78
2022/07/29 13:37:44;;;;;;;4.40;2.50;;;25.20;89.20;;;;;;6965159;28;20910;-77
2022/07/29 13:41:07;;;;;;;4.10;2.40;;;25.00;88.30;;;;;;6968545;28;20770;-76
2022/07/29 13:44:30;;;;;;;4.15;2.40;;;25.00;87.30;;;;;;6984012;28;20448;-76
2022/07/29 13:47:52;;;;;;;6.35;2.83;;;24.90;87.30;;;;;;6981006;28;20784;-77
2022/07/29 13:51:14;;;;;;;4.97;2.60;;;24.70;89.70;;;;;;6983568;28;20455;-77
2022/07/29 13:54:37;;;;;;;5.28;3.00;;;24.70;90.10;;;;;;6991123;28;20439;-77
2022/07/29 13:57:59;;;;;;;5.05;3.20;;;24.40;93.80;;;;;;6987368;28;20431;-78
2022/07/29 14:01:23;;;;;;;4.90;3.30;;;24.30;94.30;;;;;;6978656;28;20490;-78
2022/07/29 14:04:45;;;;;;;5.18;3.50;;;24.30;94.20;;;;;;6988063;28;20431;-77
2022/07/29 14:08:07;;;;;;;5.32;3.28;;;24.40;95.10;;;;;;6982118;28;20450;-76
2022/07/29 14:11:29;;;;;;;5.35;3.30;;;24.50;96.90;;;;;;6980955;28;20465;-78
2022/07/29 14:14:51;;;;;;;6.88;3.70;;;24.50;96.80;;;;;;6985595;28;20494;-79
2022/07/29 14:18:14;;;;;;;6.18;3.80;;;24.60;97.10;;;;;;6976597;28;20430;-77
2022/07/29 14:21:36;;;;;;;5.78;3.53;;;24.40;97.10;;;;;;6972465;28;20968;-76
2022/07/29 14:24:58;;;;;;;6.07;3.70;;;24.50;97.80;;;;;;6978658;28;20731;-77
2022/07/29 14:28:20;;;;;;;5.30;3.80;;;24.40;97.80;;;;;;6980963;28;20448;-77
2022/07/29 14:31:43;;;;;;;6.80;3.90;;;24.40;98.20;;;;;;6989484;28;20432;-80
2022/07/29 14:35:09;;;;;;;6.25;4.20;;;24.40;99.00;;;;;;6974695;28;20452;-79
2022/07/29 14:38:31;;;;;;;6.47;4.10;;;24.40;98.20;;;;;;6987656;28;20459;-76
2022/07/29 14:41:55;;;;;;;5.97;3.80;;;24.40;99.20;;;;;;6990889;28;20567;-78
2022/07/29 14:45:17;;;;;;;6.82;4.03;;;24.40;99.40;;;;;;6978224;28;20440;-78
2022/07/29 14:48:39;;;;;;;5.20;3.53;;;24.30;99.90;;;;;;6981527;28;20467;-79
2022/07/29 14:52:03;;;;;;;5.87;3.90;;;24.20;99.30;;;;;;6983201;28;20444;-77
2022/07/29 14:55:25;;;;;;;6.43;3.80;;;24.40;99.20;;;;;;6970377;28;20481;-78
2022/07/29 14:58:48;;;;;;;5.45;3.90;;;24.40;99.40;;;;;;6980426;28;20444;-77
2022/07/29 15:02:10;;;;;;;4.97;3.50;;;24.40;99.30;;;;;;6982150;28;20449;-79
2022/07/29 15:05:33;;;;;;;6.63;3.85;;;24.50;99.30;;;;;;6975992;28;20471;-77
2022/07/29 15:08:56;;;;;;;6.60;3.97;;;24.40;99.40;;;;;;6974797;28;20472;-78
2022/07/29 15:12:18;;;;;;;7.15;4.30;;;24.40;99.30;;;;;;6966986;28;20479;-76
2022/07/29 15:15:41;;;;;;;6.82;4.38;;;24.40;99.60;;;;;;6967357;28;20854;-77
2022/07/29 15:19:03;;;;;;;6.53;4.35;;;24.40;99.80;;;;;;6989622;28;20451;-78
2022/07/29 15:22:25;;;;;;;5.35;4.18;;;24.40;99.70;;;;;;6981808;28;20460;-79
2022/07/29 15:25:48;;;;;;;6.17;3.80;;;24.40;99.50;;;;;;6984858;28;20482;-75
2022/07/29 15:29:10;;;;;;;5.25;3.80;;;24.30;99.60;;;;;;6977477;28;20468;-78
2022/07/29 15:32:32;;;;;;;6.07;3.90;;;24.30;99.50;;;;;;6987139;28;20440;-78
2022/07/29 15:35:56;;;;;;;6.25;3.65;;;24.30;99.30;;;;;;6988207;28;20489;-77
2022/07/29 15:39:18;;;;;;;6.05;3.50;;;24.30;98.90;;;;;;6980485;28;20431;-76
2022/07/29 15:42:42;;;;;;;5.60;3.53;;;24.30;98.30;;;;;;6980939;28;20814;-75
2022/07/29 15:49:44;;;;;;;7.43;3.90;;;24.20;99.20;;;;;;6983537;28;20976;-76
2022/07/29 15:53:06;;;;;;;4.82;3.38;;;24.20;99.50;;;;;;6978528;28;20440;-75
2022/07/29 15:56:28;;;;;;;6.35;3.47;;;24.20;98.30;;;;;;6983691;28;20433;-78
2022/07/29 15:59:52;;;;;;;4.55;3.20;;;24.30;98.60;;;;;;6971721;28;20438;-78
2022/07/29 16:03:15;;;;;;;5.95;3.50;;;24.40;98.00;;;;;;6975368;28;20795;-76
2022/07/29 16:06:37;;;;;;;5.05;3.47;;;24.40;97.90;;;;;;6975783;28;20442;-78
2022/07/29 16:09:59;;;;;;;5.00;3.40;;;24.40;97.90;;;;;;6967078;28;20457;-80
2022/07/29 16:13:21;;;;;;;6.03;3.70;;;24.40;97.60;;;;;;6965660;28;20435;-76
2022/07/29 16:16:45;;;;;;;7.68;5.47;;;24.40;97.90;;;;;;6974605;28;20435;-78
2022/07/29 16:20:08;;;;;;;5.57;3.80;;;24.40;97.90;;;;;;6970436;28;20924;-75
2022/07/29 16:23:31;;;;;;;6.35;3.70;;;24.40;98.40;;;;;;6972396;28;20483;-77
2022/07/29 16:26:53;;;;;;;5.43;3.60;;;24.40;98.40;;;;;;6979870;28;20435;-74
2022/07/29 16:30:17;;;;;;;5.30;3.60;;;24.50;97.90;;;;;;6976083;28;20470;-78
2022/07/29 16:33:40;;;;;;;5.22;3.50;;;24.60;97.90;;;;;;6978968;28;20428;-78
2022/07/29 16:37:02;;;;;;;5.90;3.67;;;24.60;97.60;;;;;;6981472;28;20944;-77
2022/07/29 16:40:24;;;;;;;6.13;3.70;;;24.70;98.00;;;;;;6969137;28;20437;-80
2022/07/29 16:43:46;;;;;;;5.00;3.65;;;24.70;98.30;;;;;;6991084;28;20441;-77
2022/07/29 16:47:08;;;;;;;5.20;3.63;;;24.70;98.60;;;;;;7005994;28;20442;-77
2022/07/29 16:50:33;;;;;;;6.63;4.35;;;24.70;98.90;;;;;;6988873;28;20445;-77
2022/07/29 16:53:55;;;;;;;5.70;3.90;;;24.70;99.30;;;;;;6967684;28;20435;-79
2022/07/29 16:57:17;;;;;;;6.72;3.95;;;24.70;98.90;;;;;;6977388;28;20474;-77
2022/07/29 17:00:39;;;;;;;12.93;8.35;;;24.70;98.80;;;;;;6985981;28;20443;-76
2022/07/29 17:04:08;;;;;;;5.43;4.13;;;24.70;98.90;;;;;;6999260;28;20438;-76
2022/07/29 17:07:31;;;;;;;8.63;6.10;;;24.70;98.30;;;;;;6999622;28;20435;-77
2022/07/29 17:10:53;;;;;;;6.07;4.17;;;24.70;98.20;;;;;;6992671;28;20435;-77
2022/07/29 17:14:15;;;;;;;6.15;4.20;;;24.70;98.30;;;;;;7007150;28;20411;-77
2022/07/29 17:17:39;;;;;;;5.43;4.15;;;24.60;98.70;;;;;;7017503;28;20936;-76
2022/07/29 17:21:01;;;;;;;4.97;3.88;;;24.60;99.20;;;;;;7002568;28;20470;-79
2022/07/29 17:24:24;;;;;;;6.32;3.90;;;24.70;99.60;;;;;;7009929;28;20467;-76
2022/07/29 17:27:47;;;;;;;4.45;3.65;;;24.60;99.80;;;;;;6996147;28;20442;-77
2022/07/29 17:31:09;;;;;;;5.25;3.70;;;24.70;99.90;;;;;;6997582;28;20436;-78
2022/07/29 17:34:31;;;;;;;7.35;4.22;;;24.70;99.90;;;;;;6990287;28;20441;-76
2022/07/29 17:37:53;;;;;;;5.90;4.03;;;24.60;99.90;;;;;;7001738;28;20444;-76
2022/07/29 17:41:17;;;;;;;7.73;4.03;;;24.70;99.90;;;;;;6996190;28;21063;-79
2022/07/29 17:44:39;;;;;;;6.00;4.20;;;24.60;99.90;;;;;;7007883;28;20481;-79
2022/07/29 17:48:02;;;;;;;8.75;4.72;;;24.70;99.90;;;;;;7007965;28;20435;-76
2022/07/29 17:51:25;;;;;;;7.15;4.65;;;24.70;99.90;;;;;;7008393;28;20473;-76
2022/07/29 17:54:48;;;;;;;7.18;4.90;;;24.80;99.90;;;;;;7010232;28;20435;-77